createdAt,value
2018-07-11T00:00:22.316Z,991.57
2018-07-11T00:01:31.847Z,991.63
2018-07-11T00:02:41.992Z,991.59
2018-07-11T00:03:51.796Z,991.6
2018-07-11T00:05:01.854Z,991.6
2018-07-11T00:06:11.395Z,991.6
2018-07-11T00:07:20.669Z,991.58
2018-07-11T00:08:30.798Z,991.6
2018-07-11T00:09:40.597Z,991.58
2018-07-11T00:10:50.656Z,991.6
2018-07-11T00:12:00.732Z,991.58
2018-07-11T00:13:10.814Z,991.57
2018-07-11T00:14:20.654Z,991.58
2018-07-11T00:15:30.446Z,991.55
2018-07-11T00:16:40.503Z,991.51
2018-07-11T00:17:50.049Z,991.54
2018-07-11T00:18:59.865Z,991.52
2018-07-11T00:20:09.730Z,991.54
2018-07-11T00:21:18.992Z,991.54
2018-07-11T00:22:28.794Z,991.52
2018-07-11T00:23:38.871Z,991.52
2018-07-11T00:24:48.960Z,991.51
2018-07-11T00:25:58.812Z,991.55
2018-07-11T00:27:08.333Z,991.51
2018-07-11T00:28:17.867Z,991.56
2018-07-11T00:29:27.951Z,991.56
2018-07-11T00:30:37.753Z,991.6
2018-07-11T00:31:47.884Z,991.59
2018-07-11T00:32:57.942Z,991.6
2018-07-11T00:34:07.752Z,991.63
2018-07-11T00:35:17.824Z,991.6
2018-07-11T00:36:27.914Z,991.61
2018-07-11T00:37:37.754Z,991.6
2018-07-11T00:38:47.821Z,991.6
2018-07-11T00:39:57.883Z,991.59
2018-07-11T00:41:07.700Z,991.61
2018-07-11T00:42:17.765Z,991.6
2018-07-11T00:43:27.603Z,991.6
2018-07-11T00:44:37.694Z,991.62
2018-07-11T00:45:47.761Z,991.61
2018-07-11T00:46:57.832Z,991.66
2018-07-11T00:48:07.622Z,991.64
2018-07-11T00:49:17.466Z,991.63
2018-07-11T00:50:27.521Z,991.64
2018-07-11T00:51:37.587Z,991.66
2018-07-11T00:52:47.681Z,991.68
2018-07-11T00:53:57.757Z,991.64
2018-07-11T00:55:07.340Z,991.63
2018-07-11T00:56:16.863Z,991.66
2018-07-11T00:57:26.928Z,991.59
2018-07-11T00:58:36.745Z,991.59
2018-07-11T00:59:46.816Z,991.61
2018-07-11T01:00:56.663Z,991.57
2018-07-11T01:02:05.914Z,991.59
2018-07-11T01:03:15.986Z,991.58
2018-07-11T01:04:26.058Z,991.57
2018-07-11T01:05:36.131Z,991.57
2018-07-11T01:06:46.269Z,991.6
2018-07-11T01:07:56.084Z,991.59
2018-07-11T01:09:05.899Z,991.58
2018-07-11T01:10:15.968Z,991.58
2018-07-11T01:11:26.050Z,991.57
2018-07-11T01:12:35.879Z,991.6
2018-07-11T01:13:45.407Z,991.6
2018-07-11T01:14:55.477Z,991.55
2018-07-11T01:16:05.266Z,991.58
2018-07-11T01:17:15.070Z,991.56
2018-07-11T01:18:24.921Z,991.57
2018-07-11T01:19:35.000Z,991.59
2018-07-11T01:20:45.068Z,991.56
2018-07-11T01:21:55.130Z,991.58
2018-07-11T01:23:04.664Z,991.6
2018-07-11T01:24:14.242Z,991.6
2018-07-11T01:25:24.064Z,991.62
2018-07-11T01:26:33.321Z,991.65
2018-07-11T01:27:43.120Z,991.64
2018-07-11T01:28:52.914Z,991.65
2018-07-11T01:30:02.235Z,991.66
2018-07-11T01:31:11.764Z,991.7
2018-07-11T01:32:21.569Z,991.69
2018-07-11T01:33:31.635Z,991.65
2018-07-11T01:34:41.441Z,991.7
2018-07-11T01:35:51.571Z,991.68
2018-07-11T01:37:01.377Z,991.65
2018-07-11T01:38:11.175Z,991.67
2018-07-11T01:39:20.973Z,991.66
2018-07-11T01:40:31.043Z,991.68
2018-07-11T01:41:41.166Z,991.7
2018-07-11T01:42:50.964Z,991.7
2018-07-11T01:44:00.759Z,991.67
2018-07-11T01:45:10.827Z,991.68
2018-07-11T01:46:20.888Z,991.68
2018-07-11T01:47:31.003Z,991.68
2018-07-11T01:48:41.076Z,991.68
2018-07-11T01:49:50.349Z,991.7
2018-07-11T01:50:59.872Z,991.73
2018-07-11T01:52:09.660Z,991.72
2018-07-11T01:53:19.241Z,991.71
2018-07-11T01:54:29.041Z,991.67
2018-07-11T01:55:39.128Z,991.67
2018-07-11T01:56:49.236Z,991.64
2018-07-11T01:57:59.300Z,991.65
2018-07-11T01:59:08.879Z,991.62
2018-07-11T02:00:18.417Z,991.59
2018-07-11T02:01:28.489Z,991.63
2018-07-11T02:02:38.565Z,991.62
2018-07-11T02:03:48.634Z,991.63
2018-07-11T02:04:58.198Z,991.63
2018-07-11T02:06:08.254Z,991.66
2018-07-11T02:07:18.307Z,991.69
2018-07-11T02:08:28.374Z,991.69
2018-07-11T02:09:38.446Z,991.7
2018-07-11T02:10:48.552Z,991.68
2018-07-11T02:11:58.637Z,991.72
2018-07-11T02:13:08.428Z,991.67
2018-07-11T02:14:18.497Z,991.68
2018-07-11T02:15:28.560Z,991.71
2018-07-11T02:16:37.867Z,991.69
2018-07-11T02:17:47.940Z,991.7
2018-07-11T02:18:57.755Z,991.71
2018-07-11T02:20:07.273Z,991.74
2018-07-11T02:21:17.320Z,991.73
2018-07-11T02:22:27.153Z,991.74
2018-07-11T02:23:36.948Z,991.74
2018-07-11T02:24:46.752Z,991.72
2018-07-11T02:25:56.552Z,991.72
2018-07-11T02:27:06.352Z,991.71
2018-07-11T02:28:16.465Z,991.7
2018-07-11T02:29:26.283Z,991.7
2018-07-11T02:30:36.364Z,991.7
2018-07-11T02:31:46.450Z,991.69
2018-07-11T02:32:56.256Z,991.67
2018-07-11T02:34:05.296Z,991.67
2018-07-11T02:35:14.298Z,991.67
2018-07-11T02:36:24.386Z,991.7
2018-07-11T02:37:34.469Z,991.7
2018-07-11T02:38:44.553Z,991.71
2018-07-11T02:39:54.409Z,991.65
2018-07-11T02:41:04.225Z,991.69
2018-07-11T02:42:13.782Z,991.63
2018-07-11T02:43:23.609Z,991.65
2018-07-11T02:44:33.689Z,991.6
2018-07-11T02:45:43.859Z,991.62
2018-07-11T02:46:53.650Z,991.61
2018-07-11T02:48:03.726Z,991.66
2018-07-11T02:49:13.801Z,991.67
2018-07-11T02:50:23.869Z,991.68
2018-07-11T02:51:33.722Z,991.68
2018-07-11T02:52:43.802Z,991.7
2018-07-11T02:53:53.611Z,991.67
2018-07-11T02:55:03.406Z,991.64
2018-07-11T02:56:13.214Z,991.64
2018-07-11T02:57:23.346Z,991.63
2018-07-11T02:58:33.159Z,991.63
2018-07-11T02:59:42.424Z,991.62
2018-07-11T03:04:49.327Z,991.64
2018-07-11T03:05:59.415Z,991.66
2018-07-11T03:07:09.218Z,991.66
2018-07-11T03:08:19.335Z,991.62
2018-07-11T03:09:29.172Z,991.64
2018-07-11T03:10:38.991Z,991.61
2018-07-11T03:11:49.097Z,991.59
2018-07-11T03:12:58.899Z,991.61
2018-07-11T03:14:08.975Z,991.59
2018-07-11T03:15:18.838Z,991.6
2018-07-11T03:16:28.931Z,991.59
2018-07-11T03:17:38.729Z,991.59
2018-07-11T03:18:48.561Z,991.58
2018-07-11T03:19:58.622Z,991.57
2018-07-11T03:21:08.203Z,991.59
2018-07-11T03:22:18.013Z,991.59
2018-07-11T03:23:27.546Z,991.62
2018-07-11T03:24:37.352Z,991.6
2018-07-11T03:25:47.427Z,991.6
2018-07-11T03:26:56.473Z,991.6
2018-07-11T03:28:06.271Z,991.59
2018-07-11T03:29:15.809Z,991.54
2018-07-11T03:30:25.899Z,991.51
2018-07-11T03:31:35.437Z,991.55
2018-07-11T03:32:45.641Z,991.56
2018-07-11T03:33:55.720Z,991.54
2018-07-11T03:35:05.781Z,991.6
2018-07-11T03:36:15.565Z,991.58
2018-07-11T03:37:25.357Z,991.6
2018-07-11T03:38:35.216Z,991.58
2018-07-11T03:39:45.033Z,991.62
2018-07-11T03:40:54.567Z,991.6
2018-07-11T03:42:04.377Z,991.61
2018-07-11T03:43:13.916Z,991.59
2018-07-11T03:44:24.036Z,991.64
2018-07-11T03:45:33.567Z,991.64
2018-07-11T03:46:43.356Z,991.67
2018-07-11T03:47:53.165Z,991.64
2018-07-11T03:49:02.979Z,991.61
2018-07-11T03:50:13.090Z,991.6
2018-07-11T03:51:23.184Z,991.57
2018-07-11T03:52:33.249Z,991.54
2018-07-11T03:53:43.098Z,991.53
2018-07-11T03:54:53.272Z,991.55
2018-07-11T03:56:03.391Z,991.56
2018-07-11T03:57:13.469Z,991.6
2018-07-11T03:58:23.557Z,991.59
2018-07-11T03:59:33.362Z,991.59
2018-07-11T04:00:43.452Z,991.55
2018-07-11T04:01:53.298Z,991.59
2018-07-11T04:03:03.363Z,991.59
2018-07-11T04:04:13.189Z,991.61
2018-07-11T04:05:23.263Z,991.57
2018-07-11T04:06:33.334Z,991.6
2018-07-11T04:07:42.920Z,991.58
2018-07-11T04:08:52.998Z,991.62
2018-07-11T04:10:02.796Z,991.63
2018-07-11T04:11:12.890Z,991.69
2018-07-11T04:12:22.976Z,991.68
2018-07-11T04:13:33.099Z,991.64
2018-07-11T04:14:43.159Z,991.64
2018-07-11T04:15:53.211Z,991.67
2018-07-11T04:17:03.010Z,991.69
2018-07-11T04:18:13.069Z,991.71
2018-07-11T04:19:22.380Z,991.69
2018-07-11T04:20:31.641Z,991.71
2018-07-11T04:21:41.711Z,991.66
2018-07-11T04:22:51.254Z,991.67
2018-07-11T04:24:01.053Z,991.67
2018-07-11T04:25:10.916Z,991.68
2018-07-11T04:26:20.477Z,991.67
2018-07-11T04:27:30.266Z,991.68
2018-07-11T04:28:40.103Z,991.66
2018-07-11T04:29:50.402Z,991.66
2018-07-11T04:31:00.271Z,991.67
2018-07-11T04:32:10.094Z,991.65
2018-07-11T04:33:20.160Z,991.68
2018-07-11T04:34:30.634Z,991.69
2018-07-11T04:35:40.703Z,991.7
2018-07-11T04:36:50.009Z,991.7
2018-07-11T04:38:00.064Z,991.76
2018-07-11T04:39:09.878Z,991.69
2018-07-11T04:40:19.936Z,991.75
2018-07-11T04:41:29.737Z,991.68
2018-07-11T04:42:39.866Z,991.76
2018-07-11T04:43:49.679Z,991.74
2018-07-11T04:44:59.754Z,991.76
2018-07-11T04:46:09.571Z,991.73
2018-07-11T04:47:19.648Z,991.74
2018-07-11T04:48:29.768Z,991.73
2018-07-11T04:49:38.755Z,991.68
2018-07-11T04:50:48.560Z,991.7
2018-07-11T04:51:58.616Z,991.71
2018-07-11T04:53:08.425Z,991.76
2018-07-11T04:54:18.548Z,991.73
2018-07-11T04:55:28.614Z,991.73
2018-07-11T04:56:38.144Z,991.74
2018-07-11T04:57:48.210Z,991.72
2018-07-11T04:58:58.294Z,991.74
2018-07-11T05:00:08.428Z,991.75
2018-07-11T05:01:18.487Z,991.75
2018-07-11T05:02:28.285Z,991.74
2018-07-11T05:03:38.136Z,991.74
2018-07-11T05:04:48.231Z,991.75
2018-07-11T05:05:58.419Z,991.74
2018-07-11T05:07:08.495Z,991.75
2018-07-11T05:08:18.559Z,991.77
2018-07-11T05:09:28.644Z,991.8
2018-07-11T05:10:38.735Z,991.76
2018-07-11T05:11:48.955Z,991.77
2018-07-11T05:12:58.199Z,991.76
2018-07-11T05:14:08.261Z,991.78
2018-07-11T05:15:18.335Z,991.73
2018-07-11T05:16:27.878Z,991.72
2018-07-11T05:17:37.453Z,991.71
2018-07-11T05:18:47.524Z,991.71
2018-07-11T05:19:57.587Z,991.69
2018-07-11T05:21:07.117Z,991.68
2018-07-11T05:22:17.190Z,991.71
2018-07-11T05:23:27.050Z,991.69
2018-07-11T05:24:37.152Z,991.69
2018-07-11T05:25:46.980Z,991.67
2018-07-11T05:26:56.782Z,991.67
2018-07-11T05:28:06.575Z,991.66
2018-07-11T05:29:16.433Z,991.64
2018-07-11T05:30:26.513Z,991.64
2018-07-11T05:31:36.326Z,991.68
2018-07-11T05:32:46.134Z,991.69
2018-07-11T05:33:56.232Z,991.72
2018-07-11T05:35:06.104Z,991.72
2018-07-11T05:36:16.201Z,991.73
2018-07-11T05:37:26.598Z,991.7
2018-07-11T05:38:36.678Z,991.7
2018-07-11T05:39:46.769Z,991.7
2018-07-11T05:40:56.902Z,991.68
2018-07-11T05:42:06.449Z,991.69
2018-07-11T05:43:16.259Z,991.68
2018-07-11T05:44:26.072Z,991.69
2018-07-11T05:45:36.145Z,991.67
2018-07-11T05:46:45.996Z,991.64
2018-07-11T05:47:55.795Z,991.67
2018-07-11T05:49:05.970Z,991.64
2018-07-11T05:50:15.762Z,991.62
2018-07-11T05:51:25.306Z,991.65
2018-07-11T05:52:35.181Z,991.61
2018-07-11T05:53:44.727Z,991.66
2018-07-11T05:54:54.543Z,991.69
2018-07-11T05:56:04.359Z,991.64
2018-07-11T05:57:14.438Z,991.65
2018-07-11T05:58:24.561Z,991.66
2018-07-11T05:59:34.722Z,991.69
2018-07-11T06:00:44.254Z,991.71
2018-07-11T06:01:54.065Z,991.71
2018-07-11T06:03:04.149Z,991.69
2018-07-11T06:04:13.724Z,991.68
2018-07-11T06:05:23.555Z,991.67
2018-07-11T06:06:33.721Z,991.68
2018-07-11T06:07:43.795Z,991.7
2018-07-11T06:08:53.883Z,991.63
2018-07-11T06:10:03.476Z,991.64
2018-07-11T06:11:13.556Z,991.69
2018-07-11T06:12:23.353Z,991.67
2018-07-11T06:13:33.199Z,991.69
2018-07-11T06:14:43.371Z,991.68
2018-07-11T06:15:53.515Z,991.69
2018-07-11T06:17:03.347Z,991.67
2018-07-11T06:18:13.433Z,991.69
2018-07-11T06:19:23.540Z,991.69
2018-07-11T06:20:33.061Z,991.67
2018-07-11T06:21:42.653Z,991.67
2018-07-11T06:22:52.713Z,991.67
2018-07-11T06:24:02.579Z,991.69
2018-07-11T06:25:11.849Z,991.7
2018-07-11T06:26:21.957Z,991.66
2018-07-11T06:27:31.814Z,991.71
2018-07-11T06:28:41.632Z,991.72
2018-07-11T06:29:51.775Z,991.74
2018-07-11T06:31:01.830Z,991.69
2018-07-11T06:32:11.913Z,991.72
2018-07-11T06:33:22.103Z,991.68
2018-07-11T06:34:31.750Z,991.69
2018-07-11T06:35:41.556Z,991.7
2018-07-11T06:36:51.367Z,991.67
2018-07-11T06:38:01.271Z,991.67
2018-07-11T06:39:11.375Z,991.71
2018-07-11T06:40:22.010Z,991.73
2018-07-11T06:41:31.817Z,991.7
2018-07-11T06:42:41.345Z,991.7
2018-07-11T06:43:51.153Z,991.69
2018-07-11T06:45:01.277Z,991.69
2018-07-11T06:46:11.095Z,991.69
2018-07-11T06:47:20.909Z,991.71
2018-07-11T06:48:30.716Z,991.71
2018-07-11T06:49:40.542Z,991.72
2018-07-11T06:50:50.678Z,991.7
2018-07-11T06:52:00.824Z,991.68
2018-07-11T06:53:11.294Z,991.69
2018-07-11T06:54:21.104Z,991.67
2018-07-11T06:55:30.907Z,991.69
2018-07-11T06:56:41.032Z,991.66
2018-07-11T06:57:50.846Z,991.68
2018-07-11T06:59:00.933Z,991.64
2018-07-11T07:00:11.020Z,991.64
2018-07-11T07:01:20.826Z,991.6
2018-07-11T07:02:30.739Z,991.61
2018-07-11T07:03:40.611Z,991.6
2018-07-11T07:04:50.107Z,991.57
2018-07-11T07:06:00.174Z,991.59
2018-07-11T07:07:09.716Z,991.57
2018-07-11T07:08:19.305Z,991.55
2018-07-11T07:09:29.377Z,991.58
2018-07-11T07:10:39.191Z,991.56
2018-07-11T07:11:48.725Z,991.57
2018-07-11T07:12:57.997Z,991.55
2018-07-11T07:14:07.856Z,991.56
2018-07-11T07:15:17.389Z,991.48
2018-07-11T07:16:27.238Z,991.5
2018-07-11T07:17:37.212Z,991.49
2018-07-11T07:18:46.204Z,991.5
2018-07-11T07:19:56.053Z,991.48
2018-07-11T07:21:06.138Z,991.51
2018-07-11T07:22:15.941Z,991.5
2018-07-11T07:23:25.852Z,991.52
2018-07-11T07:24:35.927Z,991.54
2018-07-11T07:25:46.064Z,991.5
2018-07-11T07:26:55.882Z,991.51
2018-07-11T07:28:05.975Z,991.5
2018-07-11T07:29:15.783Z,991.51
2018-07-11T07:30:25.325Z,991.48
2018-07-11T07:31:34.641Z,991.48
2018-07-11T07:32:44.175Z,991.48
2018-07-11T07:33:53.991Z,991.49
2018-07-11T07:35:03.795Z,991.48
2018-07-11T07:36:13.619Z,991.5
2018-07-11T07:37:23.483Z,991.47
2018-07-11T07:38:33.590Z,991.49
2018-07-11T07:39:43.409Z,991.5
2018-07-11T07:40:53.236Z,991.52
2018-07-11T07:42:03.053Z,991.53
2018-07-11T07:43:12.648Z,991.49
2018-07-11T07:44:21.922Z,991.5
2018-07-11T07:45:32.010Z,991.49
2018-07-11T07:46:41.834Z,991.5
2018-07-11T07:47:51.399Z,991.45
2018-07-11T07:49:01.539Z,991.48
2018-07-11T07:50:11.622Z,991.5
2018-07-11T07:51:21.699Z,991.47
2018-07-11T07:52:31.232Z,991.44
2018-07-11T07:53:41.325Z,991.44
2018-07-11T07:54:51.190Z,991.39
2018-07-11T07:56:01.007Z,991.39
2018-07-11T07:57:10.818Z,991.41
2018-07-11T07:58:20.625Z,991.42
2018-07-11T07:59:29.897Z,991.42
2018-07-11T08:00:39.484Z,991.41
2018-07-11T08:01:49.557Z,991.37
2018-07-11T08:02:58.841Z,991.45
2018-07-11T08:04:08.942Z,991.44
2018-07-11T08:05:18.781Z,991.47
2018-07-11T08:06:28.373Z,991.39
2018-07-11T08:07:37.917Z,991.36
2018-07-11T08:08:47.453Z,991.4
2018-07-11T08:09:57.262Z,991.38
2018-07-11T08:11:06.807Z,991.35
2018-07-11T08:12:16.933Z,991.34
2018-07-11T08:13:26.747Z,991.33
2018-07-11T08:14:36.835Z,991.37
2018-07-11T08:15:46.918Z,991.33
2018-07-11T08:16:56.720Z,991.34
2018-07-11T08:18:06.567Z,991.31
2018-07-11T08:19:16.119Z,991.32
2018-07-11T08:20:25.973Z,991.31
2018-07-11T08:21:35.522Z,991.29
2018-07-11T08:22:45.595Z,991.28
2018-07-11T08:23:55.460Z,991.3
2018-07-11T08:25:05.562Z,991.26
2018-07-11T08:26:15.380Z,991.23
2018-07-11T08:27:25.244Z,991.26
2018-07-11T08:28:35.325Z,991.21
2018-07-11T08:29:45.461Z,991.16
2018-07-11T08:30:55.265Z,991.21
2018-07-11T08:32:05.071Z,991.17
2018-07-11T08:33:14.880Z,991.14
2018-07-11T08:34:24.689Z,991.14
2018-07-11T08:35:34.897Z,991.1
2018-07-11T08:36:44.952Z,991.07
2018-07-11T08:37:54.752Z,991.09
2018-07-11T08:39:04.815Z,991.1
2018-07-11T08:40:14.615Z,991.09
2018-07-11T08:41:23.944Z,991.09
2018-07-11T08:42:34.033Z,991.09
2018-07-11T08:43:43.836Z,991.09
2018-07-11T08:44:53.640Z,991.09
2018-07-11T08:46:03.436Z,991.06
2018-07-11T08:47:13.318Z,991.05
2018-07-11T08:48:23.539Z,991.06
2018-07-11T08:49:32.642Z,991.09
2018-07-11T08:50:42.460Z,991.05
2018-07-11T08:51:52.536Z,991.03
2018-07-11T08:53:02.126Z,991
2018-07-11T08:54:11.684Z,991.03
2018-07-11T08:55:21.504Z,991.01
2018-07-11T08:56:31.594Z,991.02
2018-07-11T08:57:41.677Z,991
2018-07-11T08:58:51.547Z,990.98
2018-07-11T09:00:01.370Z,990.96
2018-07-11T09:01:11.453Z,990.97
2018-07-11T09:02:21.524Z,990.94
2018-07-11T09:03:31.622Z,990.92
2018-07-11T09:04:41.484Z,990.9
2018-07-11T09:05:51.574Z,990.94
2018-07-11T09:07:01.671Z,990.93
2018-07-11T09:08:11.220Z,990.92
2018-07-11T09:09:21.053Z,990.89
2018-07-11T09:10:30.974Z,990.9
2018-07-11T09:11:41.133Z,990.86
2018-07-11T09:12:50.937Z,990.87
2018-07-11T09:14:00.741Z,990.86
2018-07-11T09:15:10.274Z,990.83
2018-07-11T09:16:20.405Z,990.82
2018-07-11T09:17:30.498Z,990.78
2018-07-11T09:18:40.295Z,990.84
2018-07-11T09:19:50.381Z,990.8
2018-07-11T09:21:00.466Z,990.81
2018-07-11T09:22:10.329Z,990.73
2018-07-11T09:23:19.869Z,990.75
2018-07-11T09:24:30.009Z,990.76
2018-07-11T09:25:39.228Z,990.73
2018-07-11T09:26:48.757Z,990.72
2018-07-11T09:27:58.616Z,990.69
2018-07-11T09:29:08.684Z,990.66
2018-07-11T09:30:17.952Z,990.66
2018-07-11T09:31:28.057Z,990.63
2018-07-11T09:32:38.136Z,990.64
2018-07-11T09:33:48.271Z,990.6
2018-07-11T09:34:58.347Z,990.61
2018-07-11T09:36:07.618Z,990.65
2018-07-11T09:37:17.687Z,990.6
2018-07-11T09:38:27.567Z,990.61
2018-07-11T09:39:37.436Z,990.62
2018-07-11T09:40:47.517Z,990.57
2018-07-11T09:41:57.051Z,990.56
2018-07-11T09:43:07.133Z,990.55
2018-07-11T09:44:16.945Z,990.55
2018-07-11T09:45:26.596Z,990.54
2018-07-11T09:46:36.720Z,990.56
2018-07-11T09:47:46.550Z,990.54
2018-07-11T09:48:56.615Z,990.56
2018-07-11T09:50:06.151Z,990.5
2018-07-11T09:51:16.277Z,990.53
2018-07-11T09:52:26.092Z,990.53
2018-07-11T09:53:35.939Z,990.49
2018-07-11T09:54:46.074Z,990.5
2018-07-11T09:55:55.894Z,990.52
2018-07-11T09:57:05.814Z,990.45
2018-07-11T09:58:15.364Z,990.48
2018-07-11T09:59:24.904Z,990.48
2018-07-11T10:00:34.689Z,990.51
2018-07-11T10:01:44.506Z,990.48
2018-07-11T10:02:54.378Z,990.45
2018-07-11T10:04:04.197Z,990.45
2018-07-11T10:05:14.087Z,990.43
2018-07-11T10:06:23.933Z,990.43
2018-07-11T10:07:34.021Z,990.38
2018-07-11T10:08:43.607Z,990.36
2018-07-11T10:09:53.161Z,990.37
2018-07-11T10:11:02.439Z,990.38
2018-07-11T10:12:12.526Z,990.36
2018-07-11T10:13:22.654Z,990.32
2018-07-11T10:14:32.510Z,990.34
2018-07-11T10:15:41.799Z,990.33
2018-07-11T10:16:51.871Z,990.31
2018-07-11T10:18:01.676Z,990.28
2018-07-11T10:19:11.220Z,990.27
2018-07-11T10:20:21.349Z,990.27
2018-07-11T10:21:30.947Z,990.32
2018-07-11T10:22:41.274Z,990.28
2018-07-11T10:23:51.358Z,990.29
2018-07-11T10:25:01.429Z,990.24
2018-07-11T10:26:11.551Z,990.28
2018-07-11T10:27:21.109Z,990.24
2018-07-11T10:28:30.925Z,990.23
2018-07-11T10:29:40.201Z,990.22
2018-07-11T10:30:49.742Z,990.17
2018-07-11T10:31:59.339Z,990.23
2018-07-11T10:33:08.620Z,990.15
2018-07-11T10:34:18.420Z,990.17
2018-07-11T10:35:28.228Z,990.18
2018-07-11T10:36:38.349Z,990.16
2018-07-11T10:37:48.468Z,990.13
2018-07-11T10:38:58.319Z,990.1
2018-07-11T10:40:08.654Z,990.1
2018-07-11T10:41:18.460Z,990.06
2018-07-11T10:42:28.279Z,990.09
2018-07-11T10:43:37.602Z,990.06
2018-07-11T10:44:47.668Z,990.05
2018-07-11T10:45:57.295Z,990.05
2018-07-11T10:47:06.855Z,990.03
2018-07-11T10:48:16.662Z,990.02
2018-07-11T10:49:26.507Z,989.98
2018-07-11T10:50:36.398Z,989.93
2018-07-11T10:51:46.676Z,989.94
2018-07-11T10:52:56.739Z,989.93
2018-07-11T10:54:06.558Z,989.87
2018-07-11T10:55:16.436Z,989.89
2018-07-11T10:56:26.235Z,989.84
2018-07-11T10:57:36.128Z,989.77
2018-07-11T10:58:46.963Z,989.79
2018-07-11T10:59:57.048Z,989.77
2018-07-11T11:01:06.931Z,989.74
2018-07-11T11:02:17.269Z,989.76
2018-07-11T11:03:26.813Z,989.74
2018-07-11T11:04:36.622Z,989.72
2018-07-11T11:05:46.840Z,989.71
2018-07-11T11:06:56.702Z,989.74
2018-07-11T11:08:06.871Z,989.71
2018-07-11T11:09:16.759Z,989.69
2018-07-11T11:10:26.572Z,989.74
2018-07-11T11:11:36.665Z,989.68
2018-07-11T11:12:46.527Z,989.66
2018-07-11T11:13:56.359Z,989.7
2018-07-11T11:15:05.904Z,989.72
2018-07-11T11:16:15.453Z,989.72
2018-07-11T11:17:25.272Z,989.69
2018-07-11T11:18:35.398Z,989.68
2018-07-11T11:19:45.216Z,989.71
2018-07-11T11:20:55.042Z,989.66
2018-07-11T11:22:04.870Z,989.66
2018-07-11T11:23:14.965Z,989.65
2018-07-11T11:24:24.823Z,989.65
2018-07-11T11:25:34.376Z,989.61
2018-07-11T11:26:44.778Z,989.65
2018-07-11T11:27:54.325Z,989.65
2018-07-11T11:29:04.403Z,989.63
2018-07-11T11:30:13.729Z,989.63
2018-07-11T11:31:23.839Z,989.61
2018-07-11T11:32:33.914Z,989.62
2018-07-11T11:33:43.995Z,989.57
2018-07-11T11:34:53.546Z,989.55
2018-07-11T11:36:03.429Z,989.55
2018-07-11T11:37:13.249Z,989.56
2018-07-11T11:38:23.094Z,989.49
2018-07-11T11:39:33.165Z,989.5
2018-07-11T11:40:42.982Z,989.52
2018-07-11T11:41:53.461Z,989.58
2018-07-11T11:43:04.683Z,989.63
2018-07-11T11:44:14.910Z,989.53
2018-07-11T11:45:24.683Z,989.58
2018-07-11T11:46:34.174Z,989.52
2018-07-11T11:47:44.582Z,989.51
2018-07-11T11:48:54.943Z,989.47
2018-07-11T11:50:04.990Z,989.51
2018-07-11T11:51:15.090Z,989.58
2018-07-11T11:52:25.166Z,989.7
2018-07-11T11:53:35.042Z,989.53
2018-07-11T11:54:45.133Z,989.42
2018-07-11T11:55:55.226Z,989.44
2018-07-11T11:57:05.066Z,989.65
2018-07-11T11:58:14.656Z,989.48
2018-07-11T11:59:24.248Z,989.55
2018-07-11T12:00:34.342Z,989.59
2018-07-11T12:01:44.494Z,989.49
2018-07-11T12:02:54.647Z,989.44
2018-07-11T12:04:03.917Z,989.41
2018-07-11T12:05:13.777Z,989.43
2018-07-11T12:06:23.878Z,989.41
2018-07-11T12:07:33.972Z,989.47
2018-07-11T12:08:43.789Z,989.4
2018-07-11T12:09:53.881Z,989.52
2018-07-11T12:11:04.002Z,989.4
2018-07-11T12:12:13.809Z,989.47
2018-07-11T12:13:23.630Z,989.41
2018-07-11T12:14:33.717Z,989.41
2018-07-11T12:15:43.540Z,989.23
2018-07-11T12:16:53.407Z,989.09
2018-07-11T12:18:03.501Z,989.23
2018-07-11T12:19:13.039Z,989.32
2018-07-11T12:20:23.139Z,989.2
2018-07-11T12:21:32.830Z,989.15
2018-07-11T12:22:42.454Z,989.22
2018-07-11T12:23:52.252Z,989.07
2018-07-11T12:25:02.077Z,989.08
2018-07-11T12:26:11.906Z,989.14
2018-07-11T12:27:21.717Z,989.19
2018-07-11T12:28:31.588Z,989.19
2018-07-11T12:29:41.410Z,989.04
2018-07-11T12:30:51.502Z,989.08
2018-07-11T12:32:01.599Z,988.97
2018-07-11T12:33:11.141Z,989.01
2018-07-11T12:34:21.263Z,989.14
2018-07-11T12:35:31.354Z,989.02
2018-07-11T12:36:41.173Z,989.08
2018-07-11T12:37:51.253Z,988.95
2018-07-11T12:39:01.080Z,989.03
2018-07-11T12:40:11.215Z,988.99
2018-07-11T12:41:21.044Z,989.01
2018-07-11T12:42:30.851Z,988.92
2018-07-11T12:43:40.686Z,989.22
2018-07-11T12:44:50.773Z,989.07
2018-07-11T12:46:00.650Z,989.05
2018-07-11T12:47:10.467Z,989.04
2018-07-11T12:48:20.016Z,988.75
2018-07-11T12:49:29.297Z,988.75
2018-07-11T12:50:39.383Z,988.96
2018-07-11T12:51:49.532Z,988.95
2018-07-11T12:52:59.627Z,988.91
2018-07-11T12:54:09.713Z,988.82
2018-07-11T12:55:19.544Z,988.65
2018-07-11T12:56:29.096Z,988.68
2018-07-11T12:57:39.227Z,988.65
2018-07-11T12:58:49.329Z,988.65
2018-07-11T12:59:59.158Z,988.74
2018-07-11T13:01:08.712Z,988.67
2018-07-11T13:02:18.529Z,988.73
2018-07-11T13:03:28.413Z,988.72
2018-07-11T13:04:38.510Z,988.9
2018-07-11T13:05:47.805Z,988.68
2018-07-11T13:06:57.360Z,988.69
2018-07-11T13:08:07.461Z,988.67
2018-07-11T13:09:17.344Z,988.69
2018-07-11T13:10:27.453Z,988.75
2018-07-11T13:11:37.556Z,988.73
2018-07-11T13:12:47.629Z,988.75
2018-07-11T13:13:57.737Z,988.76
2018-07-11T13:15:07.609Z,988.85
2018-07-11T13:16:17.844Z,988.69
2018-07-11T13:17:27.538Z,988.68
2018-07-11T13:18:37.339Z,988.67
2018-07-11T13:19:47.187Z,988.66
2018-07-11T13:20:57.067Z,988.69
2018-07-11T13:22:06.077Z,988.71
2018-07-11T13:23:16.160Z,988.83
2018-07-11T13:24:25.716Z,988.83
2018-07-11T13:25:35.568Z,988.98
2018-07-11T13:26:45.947Z,988.88
2018-07-11T13:27:55.769Z,988.84
2018-07-11T13:29:05.608Z,988.82
2018-07-11T13:30:15.421Z,988.81
2018-07-11T13:31:24.986Z,988.78
2018-07-11T13:32:35.132Z,988.78
2018-07-11T13:33:45.239Z,988.76
2018-07-11T13:34:55.315Z,988.78
2018-07-11T13:36:04.859Z,988.78
2018-07-11T13:37:14.414Z,988.75
2018-07-11T13:38:23.748Z,988.75
2018-07-11T13:39:33.593Z,988.74
2018-07-11T13:40:43.158Z,988.74
2018-07-11T13:41:53.235Z,988.68
2018-07-11T13:43:03.064Z,988.64
2018-07-11T13:44:12.654Z,988.68
2018-07-11T13:45:22.475Z,988.63
2018-07-11T13:46:32.563Z,988.64
2018-07-11T13:47:42.390Z,988.51
2018-07-11T13:48:52.463Z,988.75
2018-07-11T13:50:02.614Z,988.7
2018-07-11T13:51:12.708Z,988.72
2018-07-11T13:52:22.527Z,988.35
2018-07-11T13:53:32.364Z,988.56
2018-07-11T13:54:42.493Z,988.66
2018-07-11T13:55:52.710Z,988.5
2018-07-11T13:57:02.260Z,988.47
2018-07-11T13:58:11.802Z,988.12
2018-07-11T13:59:21.636Z,988.5
2018-07-11T14:00:31.477Z,988.4
2018-07-11T14:01:41.607Z,988.46
2018-07-11T14:02:51.692Z,988.52
2018-07-11T14:04:01.243Z,988.04
2018-07-11T14:05:10.799Z,988.1
2018-07-11T14:06:20.647Z,988.06
2018-07-11T14:07:30.542Z,988.2
2018-07-11T14:08:40.189Z,988.65
2018-07-11T14:09:50.025Z,988.47
2018-07-11T14:11:00.135Z,988.61
2018-07-11T14:12:09.412Z,988.55
2018-07-11T14:13:19.007Z,988.55
2018-07-11T14:14:29.097Z,988.47
2018-07-11T14:15:39.215Z,987.96
2018-07-11T14:16:49.304Z,987.92
2018-07-11T14:17:59.394Z,987.96
2018-07-11T14:19:09.552Z,987.91
2018-07-11T14:20:19.388Z,987.93
2018-07-11T14:21:30.046Z,987.98
2018-07-11T14:22:39.598Z,988.06
2018-07-11T14:23:49.690Z,988.04
2018-07-11T14:24:59.028Z,988.11
2018-07-11T14:26:08.865Z,988.7
2018-07-11T14:27:18.972Z,988.07
2018-07-11T14:28:29.072Z,989
2018-07-11T14:29:38.626Z,989.01
2018-07-11T14:30:49.062Z,989.09
2018-07-11T14:31:58.885Z,989.28
2018-07-11T14:33:08.982Z,989.15
2018-07-11T14:34:18.782Z,989.76
2018-07-11T14:35:28.587Z,989.58
2018-07-11T14:36:38.192Z,987.82
2018-07-11T14:37:47.738Z,987.89
2018-07-11T14:38:57.840Z,987.88